sensor_id;sensor_type;location;lat;lon;timestamp;P1;durP1;ratioP1;P2;durP2;ratioP2
51260;SDS011;61705;46.228;24.812;2023-02-18T00:01:46;177.90;;;81.13;;
51260;SDS011;61705;46.228;24.812;2023-02-18T00:04:13;189.32;;;82.43;;
51260;SDS011;61705;46.228;24.812;2023-02-18T00:06:42;182.52;;;78.55;;
51260;SDS011;61705;46.228;24.812;2023-02-18T00:09:12;143.70;;;62.53;;
51260;SDS011;61705;46.228;24.812;2023-02-18T00:11:39;182.13;;;83.25;;
51260;SDS011;61705;46.228;24.812;2023-02-18T00:14:12;171.88;;;79.05;;
51260;SDS011;61705;46.228;24.812;2023-02-18T00:16:41;157.27;;;68.50;;
51260;SDS011;61705;46.228;24.812;2023-02-18T00:19:12;167.25;;;75.70;;
51260;SDS011;61705;46.228;24.812;2023-02-18T00:21:40;163.43;;;70.35;;
51260;SDS011;61705;46.228;24.812;2023-02-18T00:24:11;163.18;;;74.35;;
51260;SDS011;61705;46.228;24.812;2023-02-18T00:26:43;167.02;;;73.85;;
51260;SDS011;61705;46.228;24.812;2023-02-18T00:29:12;160.10;;;70.13;;
51260;SDS011;61705;46.228;24.812;2023-02-18T00:31:47;158.35;;;69.30;;
51260;SDS011;61705;46.228;24.812;2023-02-18T00:34:14;151.80;;;66.00;;
51260;SDS011;61705;46.228;24.812;2023-02-18T00:36:44;148.40;;;64.63;;
51260;SDS011;61705;46.228;24.812;2023-02-18T00:39:15;162.13;;;70.53;;
51260;SDS011;61705;46.228;24.812;2023-02-18T00:41:45;140.80;;;62.00;;
51260;SDS011;61705;46.228;24.812;2023-02-18T00:44:23;164.88;;;66.90;;
51260;SDS011;61705;46.228;24.812;2023-02-18T00:46:53;150.63;;;67.70;;
51260;SDS011;61705;46.228;24.812;2023-02-18T00:49:22;144.77;;;61.55;;
51260;SDS011;61705;46.228;24.812;2023-02-18T00:51:52;160.48;;;70.03;;
51260;SDS011;61705;46.228;24.812;2023-02-18T00:54:21;121.18;;;50.50;;
51260;SDS011;61705;46.228;24.812;2023-02-18T00:56:48;142.38;;;61.85;;
51260;SDS011;61705;46.228;24.812;2023-02-18T00:59:14;157.55;;;68.35;;
51260;SDS011;61705;46.228;24.812;2023-02-18T01:01:41;146.20;;;64.53;;
51260;SDS011;61705;46.228;24.812;2023-02-18T01:04:08;160.77;;;69.57;;
51260;SDS011;61705;46.228;24.812;2023-02-18T01:06:37;154.80;;;68.00;;
51260;SDS011;61705;46.228;24.812;2023-02-18T01:09:04;144.75;;;62.30;;
51260;SDS011;61705;46.228;24.812;2023-02-18T01:11:34;119.50;;;52.95;;
51260;SDS011;61705;46.228;24.812;2023-02-18T01:14:01;146.25;;;66.38;;
51260;SDS011;61705;46.228;24.812;2023-02-18T01:16:28;146.40;;;60.63;;
51260;SDS011;61705;46.228;24.812;2023-02-18T01:18:58;131.57;;;61.08;;
51260;SDS011;61705;46.228;24.812;2023-02-18T01:21:24;137.68;;;62.45;;
51260;SDS011;61705;46.228;24.812;2023-02-18T01:23:51;132.65;;;58.78;;
51260;SDS011;61705;46.228;24.812;2023-02-18T01:26:18;136.85;;;61.67;;
51260;SDS011;61705;46.228;24.812;2023-02-18T01:28:47;119.90;;;49.85;;
51260;SDS011;61705;46.228;24.812;2023-02-18T01:31:16;137.95;;;60.65;;
51260;SDS011;61705;46.228;24.812;2023-02-18T01:33:43;127.00;;;60.17;;
51260;SDS011;61705;46.228;24.812;2023-02-18T01:36:12;136.18;;;59.70;;
51260;SDS011;61705;46.228;24.812;2023-02-18T01:38:39;132.95;;;61.88;;
51260;SDS011;61705;46.228;24.812;2023-02-18T01:41:06;129.30;;;61.35;;
51260;SDS011;61705;46.228;24.812;2023-02-18T01:43:36;139.50;;;59.42;;
51260;SDS011;61705;46.228;24.812;2023-02-18T01:46:19;131.55;;;58.75;;
51260;SDS011;61705;46.228;24.812;2023-02-18T01:48:56;132.60;;;58.67;;
51260;SDS011;61705;46.228;24.812;2023-02-18T01:51:29;134.23;;;57.22;;
51260;SDS011;61705;46.228;24.812;2023-02-18T01:59:26;138.50;;;62.28;;
51260;SDS011;61705;46.228;24.812;2023-02-18T02:01:58;156.07;;;65.70;;
51260;SDS011;61705;46.228;24.812;2023-02-18T02:04:27;135.35;;;59.95;;
51260;SDS011;61705;46.228;24.812;2023-02-18T02:06:57;135.95;;;57.85;;
51260;SDS011;61705;46.228;24.812;2023-02-18T02:09:27;142.27;;;61.58;;
51260;SDS011;61705;46.228;24.812;2023-02-18T02:12:23;148.85;;;64.90;;
51260;SDS011;61705;46.228;24.812;2023-02-18T02:23:32;139.65;;;60.63;;
51260;SDS011;61705;46.228;24.812;2023-02-18T02:29:00;137.65;;;61.38;;
51260;SDS011;61705;46.228;24.812;2023-02-18T02:37:15;142.70;;;60.95;;
51260;SDS011;61705;46.228;24.812;2023-02-18T02:40:00;136.88;;;58.80;;
51260;SDS011;61705;46.228;24.812;2023-02-18T02:42:39;131.60;;;57.38;;
51260;SDS011;61705;46.228;24.812;2023-02-18T02:47:46;131.90;;;58.53;;
51260;SDS011;61705;46.228;24.812;2023-02-18T02:50:46;128.43;;;53.10;;
51260;SDS011;61705;46.228;24.812;2023-02-18T02:53:29;129.20;;;53.20;;
51260;SDS011;61705;46.228;24.812;2023-02-18T02:56:01;133.32;;;54.33;;
51260;SDS011;61705;46.228;24.812;2023-02-18T02:58:27;125.82;;;52.15;;
51260;SDS011;61705;46.228;24.812;2023-02-18T03:06:26;138.68;;;59.65;;
51260;SDS011;61705;46.228;24.812;2023-02-18T03:09:17;131.65;;;53.50;;
51260;SDS011;61705;46.228;24.812;2023-02-18T03:12:17;120.65;;;52.78;;
51260;SDS011;61705;46.228;24.812;2023-02-18T03:18:28;126.07;;;55.03;;
51260;SDS011;61705;46.228;24.812;2023-02-18T03:21:11;119.70;;;54.17;;
51260;SDS011;61705;46.228;24.812;2023-02-18T03:26:24;118.80;;;51.25;;
51260;SDS011;61705;46.228;24.812;2023-02-18T03:28:56;123.45;;;51.83;;
51260;SDS011;61705;46.228;24.812;2023-02-18T03:31:26;129.80;;;53.25;;
51260;SDS011;61705;46.228;24.812;2023-02-18T03:34:03;115.35;;;50.05;;
51260;SDS011;61705;46.228;24.812;2023-02-18T03:36:36;133.60;;;56.75;;
51260;SDS011;61705;46.228;24.812;2023-02-18T03:39:14;135.25;;;56.67;;
51260;SDS011;61705;46.228;24.812;2023-02-18T03:41:43;123.75;;;52.40;;
51260;SDS011;61705;46.228;24.812;2023-02-18T03:44:10;127.72;;;55.70;;
51260;SDS011;61705;46.228;24.812;2023-02-18T03:49:16;128.77;;;55.53;;
51260;SDS011;61705;46.228;24.812;2023-02-18T03:51:43;125.07;;;53.78;;
51260;SDS011;61705;46.228;24.812;2023-02-18T03:54:10;124.28;;;52.22;;
51260;SDS011;61705;46.228;24.812;2023-02-18T03:56:37;122.72;;;52.67;;
51260;SDS011;61705;46.228;24.812;2023-02-18T03:59:08;125.93;;;56.42;;
51260;SDS011;61705;46.228;24.812;2023-02-18T04:01:38;139.77;;;58.17;;
51260;SDS011;61705;46.228;24.812;2023-02-18T04:04:08;138.45;;;58.85;;
51260;SDS011;61705;46.228;24.812;2023-02-18T04:06:34;123.72;;;52.60;;
51260;SDS011;61705;46.228;24.812;2023-02-18T04:09:02;128.98;;;54.30;;
51260;SDS011;61705;46.228;24.812;2023-02-18T04:11:38;122.25;;;52.42;;
51260;SDS011;61705;46.228;24.812;2023-02-18T04:14:08;120.85;;;55.55;;
51260;SDS011;61705;46.228;24.812;2023-02-18T04:16:38;133.73;;;54.13;;
51260;SDS011;61705;46.228;24.812;2023-02-18T04:19:05;128.23;;;55.60;;
51260;SDS011;61705;46.228;24.812;2023-02-18T04:21:35;127.80;;;53.03;;
51260;SDS011;61705;46.228;24.812;2023-02-18T04:24:01;127.80;;;53.00;;
51260;SDS011;61705;46.228;24.812;2023-02-18T04:26:28;152.85;;;57.08;;
51260;SDS011;61705;46.228;24.812;2023-02-18T04:29:01;136.52;;;57.08;;
51260;SDS011;61705;46.228;24.812;2023-02-18T04:31:27;166.57;;;61.40;;
51260;SDS011;61705;46.228;24.812;2023-02-18T04:33:54;184.77;;;67.75;;
51260;SDS011;61705;46.228;24.812;2023-02-18T04:36:23;138.05;;;56.67;;
51260;SDS011;61705;46.228;24.812;2023-02-18T04:38:53;148.50;;;57.40;;
51260;SDS011;61705;46.228;24.812;2023-02-18T04:41:22;135.50;;;51.20;;
51260;SDS011;61705;46.228;24.812;2023-02-18T04:43:50;180.55;;;67.72;;
51260;SDS011;61705;46.228;24.812;2023-02-18T04:46:16;195.27;;;70.00;;
51260;SDS011;61705;46.228;24.812;2023-02-18T04:48:43;189.80;;;71.85;;
51260;SDS011;61705;46.228;24.812;2023-02-18T04:51:16;156.25;;;61.70;;
51260;SDS011;61705;46.228;24.812;2023-02-18T04:53:42;166.15;;;65.03;;
51260;SDS011;61705;46.228;24.812;2023-02-18T04:56:09;142.40;;;59.38;;
51260;SDS011;61705;46.228;24.812;2023-02-18T04:58:41;131.20;;;57.22;;
51260;SDS011;61705;46.228;24.812;2023-02-18T05:01:08;134.57;;;57.00;;
51260;SDS011;61705;46.228;24.812;2023-02-18T05:03:37;148.35;;;65.60;;
51260;SDS011;61705;46.228;24.812;2023-02-18T05:06:04;133.38;;;58.70;;
51260;SDS011;61705;46.228;24.812;2023-02-18T05:08:36;146.93;;;63.53;;
51260;SDS011;61705;46.228;24.812;2023-02-18T05:11:08;133.07;;;59.78;;
51260;SDS011;61705;46.228;24.812;2023-02-18T05:13:38;145.38;;;61.45;;
51260;SDS011;61705;46.228;24.812;2023-02-18T05:16:07;155.90;;;64.15;;
51260;SDS011;61705;46.228;24.812;2023-02-18T05:18:36;146.40;;;58.92;;
51260;SDS011;61705;46.228;24.812;2023-02-18T05:21:02;153.75;;;64.72;;
51260;SDS011;61705;46.228;24.812;2023-02-18T05:23:35;141.73;;;60.10;;
51260;SDS011;61705;46.228;24.812;2023-02-18T05:26:02;144.45;;;61.00;;
51260;SDS011;61705;46.228;24.812;2023-02-18T05:28:29;146.07;;;63.30;;
51260;SDS011;61705;46.228;24.812;2023-02-18T05:30:58;129.93;;;57.72;;
51260;SDS011;61705;46.228;24.812;2023-02-18T05:33:27;128.85;;;55.95;;
51260;SDS011;61705;46.228;24.812;2023-02-18T05:35:56;127.70;;;57.08;;
51260;SDS011;61705;46.228;24.812;2023-02-18T05:38:26;139.52;;;58.17;;
51260;SDS011;61705;46.228;24.812;2023-02-18T05:40:57;145.25;;;63.55;;
51260;SDS011;61705;46.228;24.812;2023-02-18T05:43:24;135.40;;;57.40;;
51260;SDS011;61705;46.228;24.812;2023-02-18T05:45:51;131.00;;;57.25;;
51260;SDS011;61705;46.228;24.812;2023-02-18T05:48:17;141.52;;;61.88;;
51260;SDS011;61705;46.228;24.812;2023-02-18T05:50:44;150.52;;;61.42;;
51260;SDS011;61705;46.228;24.812;2023-02-18T05:53:11;137.80;;;61.80;;
51260;SDS011;61705;46.228;24.812;2023-02-18T05:55:42;153.93;;;63.08;;
51260;SDS011;61705;46.228;24.812;2023-02-18T05:58:14;143.80;;;60.47;;
51260;SDS011;61705;46.228;24.812;2023-02-18T06:00:42;147.13;;;64.40;;
51260;SDS011;61705;46.228;24.812;2023-02-18T06:03:09;147.05;;;63.88;;
51260;SDS011;61705;46.228;24.812;2023-02-18T06:05:35;135.48;;;61.40;;
51260;SDS011;61705;46.228;24.812;2023-02-18T06:08:05;150.55;;;64.75;;
51260;SDS011;61705;46.228;24.812;2023-02-18T06:10:33;143.13;;;61.63;;
51260;SDS011;61705;46.228;24.812;2023-02-18T06:13:01;148.23;;;63.25;;
51260;SDS011;61705;46.228;24.812;2023-02-18T06:15:29;140.98;;;61.92;;
51260;SDS011;61705;46.228;24.812;2023-02-18T06:17:56;150.77;;;64.43;;
51260;SDS011;61705;46.228;24.812;2023-02-18T06:20:26;139.45;;;59.83;;
51260;SDS011;61705;46.228;24.812;2023-02-18T06:22:52;147.40;;;67.35;;
51260;SDS011;61705;46.228;24.812;2023-02-18T06:25:19;146.88;;;62.70;;
51260;SDS011;61705;46.228;24.812;2023-02-18T06:27:48;143.52;;;62.00;;
51260;SDS011;61705;46.228;24.812;2023-02-18T06:30:19;120.35;;;49.72;;
51260;SDS011;61705;46.228;24.812;2023-02-18T06:32:49;132.48;;;55.85;;
51260;SDS011;61705;46.228;24.812;2023-02-18T06:35:18;139.25;;;59.05;;
51260;SDS011;61705;46.228;24.812;2023-02-18T06:37:47;140.05;;;59.33;;
51260;SDS011;61705;46.228;24.812;2023-02-18T06:40:14;130.27;;;56.75;;
51260;SDS011;61705;46.228;24.812;2023-02-18T06:42:41;132.10;;;58.55;;
51260;SDS011;61705;46.228;24.812;2023-02-18T06:45:07;124.00;;;55.80;;
51260;SDS011;61705;46.228;24.812;2023-02-18T06:47:36;128.05;;;55.88;;
51260;SDS011;61705;46.228;24.812;2023-02-18T06:50:03;148.48;;;65.72;;
51260;SDS011;61705;46.228;24.812;2023-02-18T06:52:33;144.57;;;61.55;;
51260;SDS011;61705;46.228;24.812;2023-02-18T06:54:59;129.88;;;55.85;;
51260;SDS011;61705;46.228;24.812;2023-02-18T06:57:26;134.90;;;55.67;;
51260;SDS011;61705;46.228;24.812;2023-02-18T06:59:57;137.13;;;58.67;;
51260;SDS011;61705;46.228;24.812;2023-02-18T07:02:27;145.30;;;60.38;;
51260;SDS011;61705;46.228;24.812;2023-02-18T07:04:53;140.30;;;60.70;;
51260;SDS011;61705;46.228;24.812;2023-02-18T07:07:25;134.60;;;58.33;;
51260;SDS011;61705;46.228;24.812;2023-02-18T07:09:51;135.43;;;58.08;;
51260;SDS011;61705;46.228;24.812;2023-02-18T07:12:18;123.32;;;54.55;;
51260;SDS011;61705;46.228;24.812;2023-02-18T07:14:47;132.68;;;55.15;;
51260;SDS011;61705;46.228;24.812;2023-02-18T07:17:16;127.78;;;55.03;;
51260;SDS011;61705;46.228;24.812;2023-02-18T07:19:46;134.15;;;58.75;;
51260;SDS011;61705;46.228;24.812;2023-02-18T07:22:13;133.93;;;59.95;;
51260;SDS011;61705;46.228;24.812;2023-02-18T07:24:41;141.25;;;61.75;;
51260;SDS011;61705;46.228;24.812;2023-02-18T07:27:11;142.70;;;65.85;;
51260;SDS011;61705;46.228;24.812;2023-02-18T07:29:40;147.10;;;61.83;;
51260;SDS011;61705;46.228;24.812;2023-02-18T07:32:07;147.40;;;63.35;;
51260;SDS011;61705;46.228;24.812;2023-02-18T07:34:35;157.25;;;65.75;;
51260;SDS011;61705;46.228;24.812;2023-02-18T07:37:02;138.35;;;60.42;;
51260;SDS011;61705;46.228;24.812;2023-02-18T07:39:35;144.77;;;57.13;;
51260;SDS011;61705;46.228;24.812;2023-02-18T07:42:02;123.53;;;53.75;;
51260;SDS011;61705;46.228;24.812;2023-02-18T07:44:32;140.23;;;63.60;;
51260;SDS011;61705;46.228;24.812;2023-02-18T07:46:59;159.63;;;71.85;;
51260;SDS011;61705;46.228;24.812;2023-02-18T07:49:27;147.82;;;59.30;;
51260;SDS011;61705;46.228;24.812;2023-02-18T07:51:57;152.77;;;65.15;;
51260;SDS011;61705;46.228;24.812;2023-02-18T07:54:28;135.10;;;55.92;;
51260;SDS011;61705;46.228;24.812;2023-02-18T07:56:57;118.47;;;49.42;;
51260;SDS011;61705;46.228;24.812;2023-02-18T07:59:26;137.43;;;58.63;;
51260;SDS011;61705;46.228;24.812;2023-02-18T08:01:55;146.77;;;62.33;;
51260;SDS011;61705;46.228;24.812;2023-02-18T08:04:24;145.75;;;63.90;;
51260;SDS011;61705;46.228;24.812;2023-02-18T08:06:54;142.32;;;58.67;;
51260;SDS011;61705;46.228;24.812;2023-02-18T08:09:24;146.77;;;60.30;;
51260;SDS011;61705;46.228;24.812;2023-02-18T08:11:50;87.18;;;35.80;;
51260;SDS011;61705;46.228;24.812;2023-02-18T08:14:30;100.15;;;47.63;;
51260;SDS011;61705;46.228;24.812;2023-02-18T08:17:01;99.32;;;44.58;;
51260;SDS011;61705;46.228;24.812;2023-02-18T08:19:45;93.20;;;44.45;;
51260;SDS011;61705;46.228;24.812;2023-02-18T08:22:22;97.20;;;45.88;;
51260;SDS011;61705;46.228;24.812;2023-02-18T08:24:55;73.80;;;32.85;;
51260;SDS011;61705;46.228;24.812;2023-02-18T08:27:25;84.45;;;37.83;;
51260;SDS011;61705;46.228;24.812;2023-02-18T08:29:54;92.15;;;39.03;;
51260;SDS011;61705;46.228;24.812;2023-02-18T08:32:21;95.93;;;43.10;;
51260;SDS011;61705;46.228;24.812;2023-02-18T08:34:56;81.40;;;38.13;;
51260;SDS011;61705;46.228;24.812;2023-02-18T08:37:30;78.90;;;33.58;;
51260;SDS011;61705;46.228;24.812;2023-02-18T08:40:21;84.82;;;37.53;;
51260;SDS011;61705;46.228;24.812;2023-02-18T08:42:52;67.80;;;32.77;;
51260;SDS011;61705;46.228;24.812;2023-02-18T08:45:22;72.43;;;31.58;;
51260;SDS011;61705;46.228;24.812;2023-02-18T08:47:56;74.65;;;33.78;;
51260;SDS011;61705;46.228;24.812;2023-02-18T08:50:45;90.18;;;40.55;;
51260;SDS011;61705;46.228;24.812;2023-02-18T08:53:12;79.50;;;34.90;;
51260;SDS011;61705;46.228;24.812;2023-02-18T08:55:39;85.53;;;38.80;;
51260;SDS011;61705;46.228;24.812;2023-02-18T08:58:06;78.65;;;35.78;;
51260;SDS011;61705;46.228;24.812;2023-02-18T09:00:36;82.00;;;39.22;;
51260;SDS011;61705;46.228;24.812;2023-02-18T09:03:16;82.93;;;40.20;;
51260;SDS011;61705;46.228;24.812;2023-02-18T09:05:52;89.75;;;41.65;;
51260;SDS011;61705;46.228;24.812;2023-02-18T09:08:26;85.15;;;39.92;;
51260;SDS011;61705;46.228;24.812;2023-02-18T09:10:58;72.78;;;34.83;;
51260;SDS011;61705;46.228;24.812;2023-02-18T09:13:37;78.50;;;35.20;;
51260;SDS011;61705;46.228;24.812;2023-02-18T09:16:10;75.57;;;34.90;;
51260;SDS011;61705;46.228;24.812;2023-02-18T09:21:13;60.15;;;29.42;;
51260;SDS011;61705;46.228;24.812;2023-02-18T09:23:41;67.75;;;31.15;;
51260;SDS011;61705;46.228;24.812;2023-02-18T09:31:18;60.08;;;28.48;;
51260;SDS011;61705;46.228;24.812;2023-02-18T09:33:51;55.38;;;26.17;;
51260;SDS011;61705;46.228;24.812;2023-02-18T09:36:21;65.93;;;28.33;;
51260;SDS011;61705;46.228;24.812;2023-02-18T09:38:47;57.55;;;28.40;;
51260;SDS011;61705;46.228;24.812;2023-02-18T09:41:26;59.08;;;30.42;;
51260;SDS011;61705;46.228;24.812;2023-02-18T11:46:14;49.88;;;21.90;;
51260;SDS011;61705;46.228;24.812;2023-02-18T11:56:25;39.17;;;19.30;;
51260;SDS011;61705;46.228;24.812;2023-02-18T12:04:16;38.60;;;19.30;;
51260;SDS011;61705;46.228;24.812;2023-02-18T12:06:52;36.97;;;16.73;;
51260;SDS011;61705;46.228;24.812;2023-02-18T12:22:54;29.42;;;15.50;;
51260;SDS011;61705;46.228;24.812;2023-02-18T12:34:15;32.63;;;18.08;;
51260;SDS011;61705;46.228;24.812;2023-02-18T12:37:05;28.80;;;16.20;;
51260;SDS011;61705;46.228;24.812;2023-02-18T12:39:45;31.60;;;18.90;;
51260;SDS011;61705;46.228;24.812;2023-02-18T13:40:23;24.02;;;14.25;;
51260;SDS011;61705;46.228;24.812;2023-02-18T13:49:08;31.67;;;17.95;;
51260;SDS011;61705;46.228;24.812;2023-02-18T13:56:52;22.42;;;12.43;;
51260;SDS011;61705;46.228;24.812;2023-02-18T13:59:24;21.80;;;11.60;;
51260;SDS011;61705;46.228;24.812;2023-02-18T14:01:53;19.35;;;11.30;;
51260;SDS011;61705;46.228;24.812;2023-02-18T14:10:25;23.35;;;12.43;;
51260;SDS011;61705;46.228;24.812;2023-02-18T14:20:28;19.77;;;11.52;;
51260;SDS011;61705;46.228;24.812;2023-02-18T14:22:57;23.02;;;12.68;;
51260;SDS011;61705;46.228;24.812;2023-02-18T14:25:32;22.58;;;12.38;;
51260;SDS011;61705;46.228;24.812;2023-02-18T14:31:00;21.85;;;11.05;;
51260;SDS011;61705;46.228;24.812;2023-02-18T14:51:38;26.98;;;14.27;;
51260;SDS011;61705;46.228;24.812;2023-02-18T14:54:10;24.73;;;12.43;;
51260;SDS011;61705;46.228;24.812;2023-02-18T14:56:44;24.58;;;12.85;;
51260;SDS011;61705;46.228;24.812;2023-02-18T14:59:18;24.55;;;13.35;;
51260;SDS011;61705;46.228;24.812;2023-02-18T15:01:47;23.42;;;11.73;;
51260;SDS011;61705;46.228;24.812;2023-02-18T15:04:14;26.13;;;12.52;;
51260;SDS011;61705;46.228;24.812;2023-02-18T15:06:43;29.92;;;13.45;;
51260;SDS011;61705;46.228;24.812;2023-02-18T15:09:19;26.17;;;13.10;;
51260;SDS011;61705;46.228;24.812;2023-02-18T15:11:51;22.90;;;12.38;;
51260;SDS011;61705;46.228;24.812;2023-02-18T15:14:31;26.38;;;11.70;;
51260;SDS011;61705;46.228;24.812;2023-02-18T15:17:04;22.38;;;10.38;;
51260;SDS011;61705;46.228;24.812;2023-02-18T15:19:42;24.67;;;11.68;;
51260;SDS011;61705;46.228;24.812;2023-02-18T15:22:18;25.15;;;11.70;;
51260;SDS011;61705;46.228;24.812;2023-02-18T15:24:48;22.42;;;11.15;;
51260;SDS011;61705;46.228;24.812;2023-02-18T15:27:17;23.38;;;11.90;;
51260;SDS011;61705;46.228;24.812;2023-02-18T15:29:50;24.02;;;11.32;;
51260;SDS011;61705;46.228;24.812;2023-02-18T15:32:19;20.13;;;11.50;;
51260;SDS011;61705;46.228;24.812;2023-02-18T15:34:51;21.95;;;11.52;;
51260;SDS011;61705;46.228;24.812;2023-02-18T15:37:27;18.95;;;10.30;;
51260;SDS011;61705;46.228;24.812;2023-02-18T15:39:55;21.50;;;11.38;;
51260;SDS011;61705;46.228;24.812;2023-02-18T15:42:25;30.98;;;18.13;;
51260;SDS011;61705;46.228;24.812;2023-02-18T15:45:00;20.15;;;10.73;;
51260;SDS011;61705;46.228;24.812;2023-02-18T15:47:41;22.77;;;12.05;;
51260;SDS011;61705;46.228;24.812;2023-02-18T15:52:47;23.05;;;10.93;;
51260;SDS011;61705;46.228;24.812;2023-02-18T15:55:32;20.98;;;11.27;;
51260;SDS011;61705;46.228;24.812;2023-02-18T15:58:17;22.17;;;11.15;;
51260;SDS011;61705;46.228;24.812;2023-02-18T16:00:52;23.98;;;12.82;;
51260;SDS011;61705;46.228;24.812;2023-02-18T16:08:53;21.73;;;11.45;;
51260;SDS011;61705;46.228;24.812;2023-02-18T16:14:21;23.95;;;12.18;;
51260;SDS011;61705;46.228;24.812;2023-02-18T16:17:04;24.52;;;11.55;;
51260;SDS011;61705;46.228;24.812;2023-02-18T16:19:38;23.95;;;12.13;;
51260;SDS011;61705;46.228;24.812;2023-02-18T16:25:06;21.27;;;10.33;;
51260;SDS011;61705;46.228;24.812;2023-02-18T16:32:52;25.33;;;11.52;;
51260;SDS011;61705;46.228;24.812;2023-02-18T16:35:20;23.08;;;13.02;;
51260;SDS011;61705;46.228;24.812;2023-02-18T16:37:48;27.23;;;13.50;;
51260;SDS011;61705;46.228;24.812;2023-02-18T16:40:20;26.52;;;12.10;;
51260;SDS011;61705;46.228;24.812;2023-02-18T16:42:50;24.98;;;12.98;;
51260;SDS011;61705;46.228;24.812;2023-02-18T16:45:29;27.17;;;13.57;;
51260;SDS011;61705;46.228;24.812;2023-02-18T16:47:58;25.30;;;14.32;;
51260;SDS011;61705;46.228;24.812;2023-02-18T16:50:26;26.88;;;13.25;;
51260;SDS011;61705;46.228;24.812;2023-02-18T16:52:55;32.50;;;15.18;;
51260;SDS011;61705;46.228;24.812;2023-02-18T16:55:23;45.88;;;21.35;;
51260;SDS011;61705;46.228;24.812;2023-02-18T16:57:52;37.50;;;17.33;;
51260;SDS011;61705;46.228;24.812;2023-02-18T17:00:20;31.55;;;16.60;;
51260;SDS011;61705;46.228;24.812;2023-02-18T17:02:48;22.35;;;12.63;;
51260;SDS011;61705;46.228;24.812;2023-02-18T17:05:50;25.42;;;12.93;;
51260;SDS011;61705;46.228;24.812;2023-02-18T17:10:38;26.70;;;13.20;;
51260;SDS011;61705;46.228;24.812;2023-02-18T17:13:04;25.92;;;13.20;;
51260;SDS011;61705;46.228;24.812;2023-02-18T17:15:34;28.90;;;15.40;;
51260;SDS011;61705;46.228;24.812;2023-02-18T17:18:01;28.13;;;13.05;;
51260;SDS011;61705;46.228;24.812;2023-02-18T17:20:30;30.10;;;14.57;;
51260;SDS011;61705;46.228;24.812;2023-02-18T17:23:01;28.67;;;13.68;;
51260;SDS011;61705;46.228;24.812;2023-02-18T17:25:32;30.15;;;15.95;;
51260;SDS011;61705;46.228;24.812;2023-02-18T17:28:04;30.48;;;15.25;;
51260;SDS011;61705;46.228;24.812;2023-02-18T17:30:31;31.38;;;15.23;;
51260;SDS011;61705;46.228;24.812;2023-02-18T17:33:02;29.80;;;15.40;;
51260;SDS011;61705;46.228;24.812;2023-02-18T17:35:29;28.38;;;14.68;;
51260;SDS011;61705;46.228;24.812;2023-02-18T17:37:56;30.85;;;14.80;;
51260;SDS011;61705;46.228;24.812;2023-02-18T17:40:24;29.08;;;14.70;;
51260;SDS011;61705;46.228;24.812;2023-02-18T17:42:54;30.25;;;15.40;;
51260;SDS011;61705;46.228;24.812;2023-02-18T17:45:27;31.50;;;15.27;;
51260;SDS011;61705;46.228;24.812;2023-02-18T17:47:58;27.13;;;14.27;;
51260;SDS011;61705;46.228;24.812;2023-02-18T17:50:27;27.83;;;13.75;;
51260;SDS011;61705;46.228;24.812;2023-02-18T17:52:55;36.63;;;17.60;;
51260;SDS011;61705;46.228;24.812;2023-02-18T17:55:26;34.08;;;16.13;;
51260;SDS011;61705;46.228;24.812;2023-02-18T17:57:58;30.50;;;14.82;;
51260;SDS011;61705;46.228;24.812;2023-02-18T18:02:56;30.75;;;16.23;;
51260;SDS011;61705;46.228;24.812;2023-02-18T18:05:34;38.03;;;18.10;;
51260;SDS011;61705;46.228;24.812;2023-02-18T18:08:02;32.28;;;15.07;;
51260;SDS011;61705;46.228;24.812;2023-02-18T18:10:32;27.55;;;13.60;;
51260;SDS011;61705;46.228;24.812;2023-02-18T18:13:05;27.92;;;14.40;;
51260;SDS011;61705;46.228;24.812;2023-02-18T18:15:39;31.35;;;15.52;;
51260;SDS011;61705;46.228;24.812;2023-02-18T18:18:09;32.53;;;15.77;;
51260;SDS011;61705;46.228;24.812;2023-02-18T18:20:37;31.73;;;15.40;;
51260;SDS011;61705;46.228;24.812;2023-02-18T18:23:10;27.58;;;14.65;;
51260;SDS011;61705;46.228;24.812;2023-02-18T18:25:40;25.90;;;12.98;;
51260;SDS011;61705;46.228;24.812;2023-02-18T18:28:09;24.83;;;13.63;;
51260;SDS011;61705;46.228;24.812;2023-02-18T18:30:38;30.63;;;14.23;;
51260;SDS011;61705;46.228;24.812;2023-02-18T18:35:46;28.90;;;14.45;;
51260;SDS011;61705;46.228;24.812;2023-02-18T18:38:17;30.60;;;14.32;;
51260;SDS011;61705;46.228;24.812;2023-02-18T18:40:51;33.55;;;18.65;;
51260;SDS011;61705;46.228;24.812;2023-02-18T18:43:22;29.55;;;15.55;;
51260;SDS011;61705;46.228;24.812;2023-02-18T18:45:56;29.88;;;14.25;;
51260;SDS011;61705;46.228;24.812;2023-02-18T18:48:23;31.77;;;15.20;;
51260;SDS011;61705;46.228;24.812;2023-02-18T18:50:52;33.78;;;16.65;;
51260;SDS011;61705;46.228;24.812;2023-02-18T18:53:25;34.80;;;17.63;;
51260;SDS011;61705;46.228;24.812;2023-02-18T18:56:05;30.88;;;14.88;;
51260;SDS011;61705;46.228;24.812;2023-02-18T18:58:36;29.50;;;15.30;;
51260;SDS011;61705;46.228;24.812;2023-02-18T19:01:03;27.23;;;13.60;;
51260;SDS011;61705;46.228;24.812;2023-02-18T19:03:35;25.52;;;13.20;;
51260;SDS011;61705;46.228;24.812;2023-02-18T19:06:03;38.42;;;19.25;;
51260;SDS011;61705;46.228;24.812;2023-02-18T19:08:30;38.00;;;19.38;;
51260;SDS011;61705;46.228;24.812;2023-02-18T19:10:57;34.47;;;16.58;;
51260;SDS011;61705;46.228;24.812;2023-02-18T19:13:28;32.88;;;15.07;;
51260;SDS011;61705;46.228;24.812;2023-02-18T19:16:06;28.23;;;14.10;;
51260;SDS011;61705;46.228;24.812;2023-02-18T19:18:59;28.10;;;15.32;;
51260;SDS011;61705;46.228;24.812;2023-02-18T19:21:26;28.13;;;13.20;;
51260;SDS011;61705;46.228;24.812;2023-02-18T19:23:53;29.42;;;14.07;;
51260;SDS011;61705;46.228;24.812;2023-02-18T19:26:20;29.58;;;14.43;;
51260;SDS011;61705;46.228;24.812;2023-02-18T19:28:47;32.08;;;15.10;;
51260;SDS011;61705;46.228;24.812;2023-02-18T19:31:14;26.35;;;13.23;;
51260;SDS011;61705;46.228;24.812;2023-02-18T19:33:41;31.23;;;14.70;;
51260;SDS011;61705;46.228;24.812;2023-02-18T19:36:11;33.53;;;16.73;;
51260;SDS011;61705;46.228;24.812;2023-02-18T19:38:40;30.10;;;14.65;;
51260;SDS011;61705;46.228;24.812;2023-02-18T19:41:13;34.72;;;16.58;;
51260;SDS011;61705;46.228;24.812;2023-02-18T19:43:42;35.33;;;16.90;;
51260;SDS011;61705;46.228;24.812;2023-02-18T19:46:12;41.00;;;18.10;;
51260;SDS011;61705;46.228;24.812;2023-02-18T19:48:41;34.97;;;17.40;;
51260;SDS011;61705;46.228;24.812;2023-02-18T19:51:10;35.97;;;17.83;;
51260;SDS011;61705;46.228;24.812;2023-02-18T19:53:38;29.70;;;15.43;;
51260;SDS011;61705;46.228;24.812;2023-02-18T19:56:05;33.38;;;16.20;;
51260;SDS011;61705;46.228;24.812;2023-02-18T19:58:33;34.72;;;17.50;;
51260;SDS011;61705;46.228;24.812;2023-02-18T20:01:12;29.63;;;14.95;;